Time;durP1;ratioP1;P1;durP2;ratioP2;P2;SDS_P1;SDS_P2;PMS_P1;PMS_P2;Temp;Humidity;BMP_temperature;BMP_pressure;BME280_temperature;BME280_humidity;BME280_pressure;Samples;Min_cycle;Max_cycle;Signal;HPM_P1;HPM_P2
2023/03/30 19:22:29;;;;;;;16.30;12.70;;;;;;;6.99;50.56;99204.35;104997;1283;612985;-36
2023/03/30 19:24:57;;;;;;;18.80;12.60;;;;;;;7.26;50.03;99201.14;106594;1267;170686;-36
2023/03/30 19:27:26;;;;;;;16.70;11.50;;;;;;;7.04;50.43;99200.10;106765;1267;61578;-38
2023/03/30 19:29:56;;;;;;;16.80;12.00;;;;;;;6.92;50.81;99198.58;106770;1266;72334;-36
2023/03/30 19:32:24;;;;;;;17.30;11.80;;;;;;;6.84;50.81;99197.41;106765;1267;69190;-36
2023/03/30 19:34:55;;;;;;;16.10;10.30;;;;;;;6.78;50.49;99193.52;106765;1267;73889;-36
2023/03/30 19:37:23;;;;;;;15.90;11.70;;;;;;;6.72;50.87;99191.33;106779;1267;60451;-36
2023/03/30 19:39:52;;;;;;;18.60;11.40;;;;;;;6.64;51.20;99190.23;106802;1267;61208;-36
2023/03/30 19:42:21;;;;;;;16.20;10.20;;;;;;;6.60;51.53;99185.48;106693;1269;72951;-37
2023/03/30 19:44:50;;;;;;;17.10;11.00;;;;;;;6.51;51.45;99182.30;106635;1266;69129;-36
2023/03/30 19:47:20;;;;;;;11.90;7.10;;;;;;;6.43;52.07;99184.27;106620;1269;73887;-36
2023/03/30 19:49:49;;;;;;;19.50;11.60;;;;;;;6.37;51.88;99179.38;106627;1265;60761;-37
2023/03/30 19:52:18;;;;;;;16.70;10.40;;;;;;;6.35;51.69;99178.84;106739;1267;60330;-37
2023/03/30 19:54:46;;;;;;;22.40;12.90;;;;;;;6.31;51.76;99172.70;106695;1266;74243;-36
2023/03/30 19:57:15;;;;;;;17.70;11.60;;;;;;;6.30;52.14;99175.08;106757;1269;69222;-37
2023/03/30 19:59:48;;;;;;;15.80;9.60;;;;;;;6.26;52.35;99172.23;106734;1270;73782;-36
2023/03/30 20:02:17;;;;;;;13.20;8.60;;;;;;;6.24;52.52;99166.80;106755;1269;60541;-37
2023/03/30 20:04:46;;;;;;;18.40;11.40;;;;;;;6.26;53.03;99162.57;106782;1267;61538;-37
2023/03/30 20:07:15;;;;;;;15.70;9.60;;;;;;;6.29;53.46;99160.65;105378;1266;1003651;-37
2023/03/30 20:09:44;;;;;;;16.40;9.50;;;;;;;6.31;53.61;99153.13;106746;1267;68199;-37
2023/03/30 20:12:12;;;;;;;13.80;9.20;;;;;;;6.33;53.02;99153.25;106805;1267;74263;-36
2023/03/30 20:14:42;;;;;;;15.60;9.50;;;;;;;6.33;52.90;99152.93;106749;1267;60700;-36
2023/03/30 20:17:10;;;;;;;16.00;9.90;;;;;;;6.32;53.39;99152.54;106848;1267;61571;-36
2023/03/30 20:19:39;;;;;;;13.20;8.30;;;;;;;6.33;53.62;99150.45;106804;1266;74290;-36
2023/03/30 20:22:11;;;;;;;11.90;7.80;;;;;;;6.34;54.18;99147.03;106731;1270;69117;-36
2023/03/30 20:24:41;;;;;;;10.40;6.80;;;;;;;6.32;54.00;99142.30;106750;1267;73656;-36
2023/03/30 20:27:12;;;;;;;10.30;6.60;;;;;;;6.30;53.73;99138.30;106726;1267;60947;-36
2023/03/30 20:29:40;;;;;;;11.50;6.90;;;;;;;6.30;54.27;99137.02;106765;1270;60301;-36
2023/03/30 20:32:09;;;;;;;10.90;6.50;;;;;;;6.31;54.17;99134.09;106774;1267;73983;-36
2023/03/30 20:34:41;;;;;;;9.10;6.00;;;;;;;6.29;53.64;99134.66;106768;1267;69968;-36
2023/03/30 20:37:09;;;;;;;10.30;5.90;;;;;;;6.27;53.50;99131.77;106733;1266;72874;-36
2023/03/30 20:39:38;;;;;;;9.40;6.00;;;;;;;6.27;53.46;99129.45;106737;1264;60820;-36
2023/03/30 20:42:08;;;;;;;8.60;5.60;;;;;;;6.27;53.43;99122.27;106804;1263;62005;-36
2023/03/30 20:44:39;;;;;;;8.50;5.80;;;;;;;6.27;53.12;99121.97;106817;1264;74287;-36
2023/03/30 20:47:09;;;;;;;13.30;6.50;;;;;;;6.29;53.15;99112.33;106804;1264;69368;-36
2023/03/30 20:49:39;;;;;;;8.80;6.20;;;;;;;6.29;52.53;99107.88;106776;1264;73862;-36
2023/03/30 20:52:10;;;;;;;12.80;6.70;;;;;;;6.28;51.74;99100.55;107454;1254;60863;-36
2023/03/30 20:54:43;;;;;;;10.00;6.60;;;;;;;6.27;51.00;99099.97;107387;1254;61532;-36
2023/03/30 20:57:12;;;;;;;12.10;7.20;;;;;;;6.26;50.94;99095.03;107417;1254;74211;-36
2023/03/30 20:59:41;;;;;;;13.50;8.00;;;;;;;6.24;50.39;99089.05;107500;1254;69121;-36
2023/03/30 21:02:10;;;;;;;16.60;8.80;;;;;;;6.23;50.18;99082.10;107459;1254;73888;-37
2023/03/30 21:04:39;;;;;;;13.80;8.30;;;;;;;6.25;49.67;99079.22;107472;1254;60704;-37
2023/03/30 21:07:11;;;;;;;12.50;8.30;;;;;;;6.26;49.15;99073.95;107486;1254;61305;-36
2023/03/30 21:09:40;;;;;;;13.10;8.30;;;;;;;6.26;49.21;99070.80;107501;1254;74265;-36
2023/03/30 21:12:09;;;;;;;13.50;7.70;;;;;;;6.29;49.68;99071.43;107527;1254;69060;-37
2023/03/30 21:14:44;;;;;;;13.90;7.70;;;;;;;6.31;49.61;99066.27;107513;1254;73894;-37
2023/03/30 21:17:13;;;;;;;11.80;8.20;;;;;;;6.31;50.13;99058.96;107494;1254;59505;-37
2023/03/30 21:19:41;;;;;;;18.30;10.00;;;;;;;6.30;51.09;99059.23;107484;1254;59544;-37
2023/03/30 21:22:11;;;;;;;15.10;10.10;;;;;;;6.25;52.24;99055.23;107482;1254;74039;-36
2023/03/30 21:24:41;;;;;;;15.90;10.00;;;;;;;6.18;52.86;99056.95;107525;1258;68845;-36
2023/03/30 21:27:12;;;;;;;18.30;9.50;;;;;;;6.12;53.12;99052.28;107525;1254;73997;-36
2023/03/30 21:29:43;;;;;;;17.10;11.00;;;;;;;6.09;53.11;99051.81;107534;1254;60556;-36
2023/03/30 21:32:12;;;;;;;16.10;9.80;;;;;;;6.07;53.53;99047.21;107557;1254;61539;-37
2023/03/30 21:34:41;;;;;;;16.80;10.50;;;;;;;6.05;54.08;99047.00;107528;1254;73022;-36
2023/03/30 21:37:09;;;;;;;18.00;11.60;;;;;;;6.02;54.41;99042.50;107498;1254;69559;-37
2023/03/30 21:39:38;;;;;;;21.60;13.00;;;;;;;5.97;54.71;99042.05;107413;1254;73665;-37
2023/03/30 21:42:06;;;;;;;18.90;12.50;;;;;;;5.93;55.02;99038.83;107367;1254;60779;-37
2023/03/30 21:44:35;;;;;;;18.60;12.60;;;;;;;5.86;55.12;99037.37;107520;1254;61612;-38
2023/03/30 21:47:04;;;;;;;17.40;11.50;;;;;;;5.81;55.17;99037.58;107423;1259;73206;-37
2023/03/30 21:49:33;;;;;;;16.50;10.90;;;;;;;5.78;54.79;99032.55;107480;1254;69181;-37
2023/03/30 21:52:02;;;;;;;17.40;11.60;;;;;;;5.77;54.63;99031.30;107426;1254;73899;-37
2023/03/30 21:54:31;;;;;;;18.00;11.30;;;;;;;5.74;54.31;99024.66;107477;1254;60946;-37
2023/03/30 21:56:59;;;;;;;16.30;11.40;;;;;;;5.74;54.72;99016.35;107532;1254;61549;-37
2023/03/30 21:59:28;;;;;;;18.90;11.00;;;;;;;5.73;54.41;99014.23;107563;1254;74287;-37
2023/03/30 22:01:57;;;;;;;19.80;12.60;;;;;;;5.69;54.65;99013.69;107531;1254;69098;-37
2023/03/30 22:04:25;;;;;;;16.40;10.50;;;;;;;5.65;54.60;99013.33;107516;1254;73052;-37
2023/03/30 22:06:53;;;;;;;17.60;10.70;;;;;;;5.61;54.72;99004.58;107495;1254;60741;-37
2023/03/30 22:09:22;;;;;;;15.60;10.10;;;;;;;5.56;55.05;99004.27;107545;1254;61518;-37
2023/03/30 22:11:54;;;;;;;16.10;10.00;;;;;;;5.52;55.08;99000.30;107516;1254;74271;-37
2023/03/30 22:14:24;;;;;;;18.10;10.20;;;;;;;5.49;55.49;98996.52;107503;1254;69177;-37
2023/03/30 22:16:52;;;;;;;16.10;10.00;;;;;;;5.44;55.68;98992.02;107475;1254;73968;-37
2023/03/30 22:19:27;;;;;;;15.00;8.90;;;;;;;5.39;56.03;98993.85;107490;1254;60784;-37
2023/03/30 22:21:56;;;;;;;15.10;9.30;;;;;;;5.37;55.72;98990.97;107541;1254;60440;-37
2023/03/30 22:24:25;;;;;;;14.90;9.30;;;;;;;5.36;55.93;98987.70;107459;1254;74217;-37
2023/03/30 22:26:54;;;;;;;13.40;8.90;;;;;;;5.37;55.74;98981.05;107564;1254;67800;-37
2023/03/30 22:29:22;;;;;;;17.40;8.80;;;;;;;5.38;55.53;98978.88;107574;1254;73635;-37
2023/03/30 22:31:54;;;;;;;15.60;8.60;;;;;;;5.39;55.05;98975.76;107492;1254;60812;-37
2023/03/30 22:34:23;;;;;;;14.10;8.40;;;;;;;5.39;54.85;98972.45;107495;1254;61538;-37
2023/03/30 22:36:53;;;;;;;11.10;7.30;;;;;;;5.39;54.35;98974.06;107527;1254;74585;-37
2023/03/30 22:39:22;;;;;;;12.30;7.40;;;;;;;5.39;53.11;98972.36;107464;1254;69155;-37
2023/03/30 22:41:51;;;;;;;12.60;8.00;;;;;;;5.40;52.75;98967.56;107442;1254;73893;-37
2023/03/30 22:44:20;;;;;;;13.20;7.60;;;;;;;5.42;52.39;98965.16;107349;1254;60777;-37
2023/03/30 22:46:48;;;;;;;10.40;5.60;;;;;;;5.45;51.66;98962.26;107422;1254;59990;-37
2023/03/30 22:49:17;;;;;;;15.10;8.30;;;;;;;5.47;51.34;98962.39;107485;1254;74229;-37
2023/03/30 22:51:49;;;;;;;12.40;7.70;;;;;;;5.47;51.35;98959.50;107495;1254;68969;-37
2023/03/30 22:54:20;;;;;;;13.00;7.20;;;;;;;5.50;51.43;98957.89;107478;1254;73903;-37
2023/03/30 22:56:50;;;;;;;13.00;7.60;;;;;;;5.52;51.07;98957.96;107389;1254;60787;-37
2023/03/30 22:59:18;;;;;;;14.10;8.50;;;;;;;5.54;50.79;98956.51;107452;1254;61558;-37
2023/03/30 23:01:46;;;;;;;15.80;8.70;;;;;;;5.56;50.76;98953.65;107472;1254;74267;-37
2023/03/30 23:04:15;;;;;;;12.20;7.90;;;;;;;5.56;50.23;98951.73;107533;1254;69230;-36
2023/03/30 23:06:44;;;;;;;12.50;6.50;;;;;;;5.56;50.43;98948.20;106714;1254;1003172;-37
2023/03/30 23:09:13;;;;;;;14.80;8.60;;;;;;;5.57;50.50;98951.16;107560;1254;60722;-37
2023/03/30 23:11:46;;;;;;;12.70;8.00;;;;;;;5.59;50.74;98944.59;107519;1254;61298;-37
2023/03/30 23:14:15;;;;;;;15.20;8.70;;;;;;;5.59;50.71;98942.27;107496;1254;74172;-37
2023/03/30 23:16:45;;;;;;;13.40;8.10;;;;;;;5.57;50.78;98936.16;107534;1254;68221;-37
2023/03/30 23:19:14;;;;;;;13.90;8.90;;;;;;;5.56;50.67;98933.98;107556;1254;73682;-38
2023/03/30 23:21:44;;;;;;;12.70;7.90;;;;;;;5.55;50.44;98932.40;107479;1254;60935;-37
2023/03/30 23:24:15;;;;;;;12.30;8.30;;;;;;;5.55;50.57;98932.18;107462;1254;61599;-37
2023/03/30 23:26:45;;;;;;;11.30;8.10;;;;;;;5.52;51.11;98924.85;107550;1259;73079;-37
2023/03/30 23:29:13;;;;;;;15.80;8.50;;;;;;;5.54;51.06;98928.77;107551;1254;69112;-37
2023/03/30 23:31:43;;;;;;;17.20;9.90;;;;;;;5.51;51.14;98925.45;107516;1254;72654;-37
2023/03/30 23:34:12;;;;;;;15.20;9.70;;;;;;;5.52;51.28;98927.46;107530;1254;60974;-37
2023/03/30 23:36:42;;;;;;;;;;;;;;;5.53;51.05;98927.11;107488;1254;61455;-37
2023/03/30 23:39:10;;;;;;;17.10;10.90;;;;;;;5.43;51.07;98922.17;107541;1259;74821;-37
2023/03/30 23:41:39;;;;;;;18.60;11.00;;;;;;;5.36;51.35;98916.13;107492;1254;68782;-36
2023/03/30 23:44:11;;;;;;;16.10;10.00;;;;;;;5.36;51.31;98908.16;107481;1254;73935;-37
2023/03/30 23:46:40;;;;;;;18.60;10.30;;;;;;;5.34;51.44;98905.75;107502;1254;60779;-36
2023/03/30 23:49:09;;;;;;;15.70;10.20;;;;;;;5.29;51.70;98908.14;107513;1254;60687;-36
2023/03/30 23:51:38;;;;;;;15.10;10.10;;;;;;;5.26;51.98;98905.98;107480;1254;73905;-36
2023/03/30 23:54:06;;;;;;;16.00;10.80;;;;;;;5.19;52.14;98899.85;107487;1254;69513;-36
2023/03/30 23:56:36;;;;;;;17.20;11.00;;;;;;;5.23;52.53;98901.48;107521;1254;73669;-36
2023/03/30 23:59:05;;;;;;;21.00;11.80;;;;;;;5.22;52.63;98894.33;107558;1254;60293;-36
